Time;durP1;ratioP1;P1;durP2;ratioP2;P2;SDS_P1;SDS_P2;PMS_P1;PMS_P2;Temp;Humidity;BMP_temperature;BMP_pressure;BME280_temperature;BME280_humidity;BME280_pressure;Samples;Min_cycle;Max_cycle;Signal;HPM_P1;HPM_P2
2023/10/19 00:02:06;;;;;;;22.45;17.75;;;10.80;99.90;;;;;;5087590;28;20024;-68
2023/10/19 00:04:34;;;;;;;21.77;17.30;;;10.80;99.90;;;;;;5089252;28;20028;-69
2023/10/19 00:07:00;;;;;;;22.77;17.80;;;10.80;99.90;;;;;;5091600;28;20020;-68
2023/10/19 00:09:31;;;;;;;21.35;16.35;;;10.90;99.90;;;;;;5092716;28;20048;-68
2023/10/19 00:11:57;;;;;;;20.90;15.70;;;10.90;99.90;;;;;;5088696;28;20073;-68
2023/10/19 00:14:25;;;;;;;19.25;15.00;;;11.00;99.90;;;;;;5106117;27;20046;-68
2023/10/19 00:17:00;;;;;;;17.55;15.40;;;11.00;99.90;;;;;;5134161;27;20033;-69
2023/10/19 00:19:28;;;;;;;22.38;13.13;;;11.00;99.90;;;;;;5132331;27;20016;-68
2023/10/19 00:22:01;;;;;;;23.40;14.25;;;11.00;99.90;;;;;;5132950;27;20490;-67
2023/10/19 00:24:31;;;;;;;15.18;12.63;;;11.10;99.90;;;;;;5132779;27;20023;-68
2023/10/19 00:26:57;;;;;;;16.75;12.82;;;11.20;99.90;;;;;;5133857;27;20020;-68
2023/10/19 00:29:32;;;;;;;18.13;13.02;;;11.30;99.90;;;;;;5131410;27;20531;-68
2023/10/19 00:32:02;;;;;;;14.57;12.05;;;11.40;99.90;;;;;;5131517;27;20031;-68
2023/10/19 00:34:28;;;;;;;15.80;10.50;;;11.40;99.90;;;;;;5133041;27;20019;-68
2023/10/19 00:36:56;;;;;;;13.73;10.70;;;11.50;99.90;;;;;;5133651;27;20084;-68
2023/10/19 00:39:24;;;;;;;13.55;10.48;;;11.60;99.90;;;;;;5132857;27;20027;-68
2023/10/19 00:41:49;;;;;;;11.95;9.52;;;11.60;99.90;;;;;;5131077;27;20019;-68
2023/10/19 00:44:22;;;;;;;13.25;8.98;;;11.70;99.90;;;;;;5134032;27;20022;-68
2023/10/19 00:47:03;;;;;;;12.77;9.27;;;11.70;99.90;;;;;;5130120;27;20026;-68
2023/10/19 00:49:30;;;;;;;16.25;9.02;;;11.70;99.90;;;;;;5132571;27;20064;-68
2023/10/19 00:52:11;;;;;;;16.17;9.82;;;11.70;99.90;;;;;;5133376;27;20019;-68
2023/10/19 00:57:20;;;;;;;12.30;8.55;;;11.80;99.90;;;;;;5132679;27;20027;-68
2023/10/19 00:59:54;;;;;;;11.98;8.40;;;11.80;99.90;;;;;;5132628;27;20106;-68
2023/10/19 01:02:21;;;;;;;11.40;8.15;;;11.80;99.90;;;;;;5133813;27;20080;-68
2023/10/19 01:05:00;;;;;;;9.50;8.50;;;11.80;99.90;;;;;;5131127;27;20035;-68
2023/10/19 01:07:27;;;;;;;13.63;9.00;;;11.90;99.90;;;;;;5131256;27;20377;-68
2023/10/19 01:10:03;;;;;;;11.27;8.95;;;11.90;99.90;;;;;;5131978;27;20019;-69
2023/10/19 01:12:33;;;;;;;10.68;8.68;;;11.90;99.90;;;;;;5131713;27;20019;-68
2023/10/19 01:15:20;;;;;;;13.35;8.75;;;12.00;99.90;;;;;;5133032;27;20038;-68
2023/10/19 01:17:52;;;;;;;10.73;7.75;;;12.10;99.90;;;;;;5131186;27;20042;-68
2023/10/19 01:20:22;;;;;;;13.68;7.80;;;12.10;99.90;;;;;;5133910;27;20062;-68
2023/10/19 01:33:57;;;;;;;9.27;6.70;;;12.30;99.90;;;;;;5129958;27;20050;-69
2023/10/19 01:38:58;;;;;;;9.38;7.22;;;12.40;99.90;;;;;;5130405;27;20011;-68
2023/10/19 01:41:26;;;;;;;11.40;7.45;;;12.40;99.90;;;;;;5129971;27;20026;-68
2023/10/19 01:44:02;;;;;;;8.43;7.25;;;12.50;99.90;;;;;;5131745;27;20027;-68
2023/10/19 01:46:31;;;;;;;13.77;8.10;;;12.50;99.90;;;;;;5129617;27;20011;-67
2023/10/19 01:48:57;;;;;;;18.45;14.35;;;12.60;99.90;;;;;;5132350;27;20038;-67
2023/10/19 01:51:28;;;;;;;21.92;14.80;;;12.50;99.90;;;;;;5132889;27;20447;-68
2023/10/19 01:53:55;;;;;;;23.33;16.77;;;12.50;99.90;;;;;;5130611;27;20023;-67
2023/10/19 01:56:21;;;;;;;20.23;16.17;;;12.20;99.90;;;;;;5132974;27;20067;-68
2023/10/19 01:58:48;;;;;;;22.77;18.63;;;12.00;99.90;;;;;;5131787;27;20027;-68
2023/10/19 02:01:20;;;;;;;24.77;17.55;;;11.80;99.90;;;;;;5133175;27;20069;-67
2023/10/19 02:03:47;;;;;;;24.65;19.20;;;11.60;99.90;;;;;;5128925;27;20094;-68
2023/10/19 02:06:19;;;;;;;28.52;20.65;;;11.50;99.90;;;;;;5132512;27;20061;-67
2023/10/19 02:09:00;;;;;;;32.15;20.30;;;11.40;99.90;;;;;;5126268;27;20060;-68
2023/10/19 02:11:27;;;;;;;27.75;21.40;;;11.30;99.90;;;;;;5130648;27;20012;-68
2023/10/19 02:13:55;;;;;;;25.48;19.98;;;11.30;99.90;;;;;;5130287;27;20676;-67
2023/10/19 02:16:22;;;;;;;31.90;22.00;;;11.20;99.90;;;;;;5131286;27;20027;-68
2023/10/19 02:18:49;;;;;;;27.70;21.73;;;11.20;99.90;;;;;;5131166;27;20427;-68
2023/10/19 02:21:14;;;;;;;29.73;22.90;;;11.20;99.90;;;;;;5132645;27;20022;-70
2023/10/19 02:23:44;;;;;;;31.80;22.83;;;11.20;99.90;;;;;;5130975;27;20030;-67
2023/10/19 02:26:13;;;;;;;30.05;22.35;;;11.20;99.90;;;;;;5132311;27;20413;-67
2023/10/19 02:28:39;;;;;;;29.98;22.38;;;11.10;99.90;;;;;;5131273;27;20011;-68
2023/10/19 02:31:15;;;;;;;30.17;21.95;;;11.10;99.90;;;;;;5130231;27;20015;-67
2023/10/19 02:33:41;;;;;;;31.92;24.33;;;11.10;99.90;;;;;;5129338;27;20440;-68
2023/10/19 02:36:12;;;;;;;32.00;23.42;;;11.10;99.90;;;;;;5132433;27;20031;-67
2023/10/19 02:38:39;;;;;;;31.73;25.02;;;11.10;99.90;;;;;;5129516;27;20015;-68
2023/10/19 02:41:05;;;;;;;29.33;23.38;;;11.10;99.90;;;;;;5129804;27;20058;-68
2023/10/19 02:43:32;;;;;;;28.73;22.92;;;11.00;99.90;;;;;;5131043;27;20473;-68
2023/10/19 02:45:59;;;;;;;35.55;24.33;;;11.00;99.90;;;;;;5132270;27;20023;-67
2023/10/19 02:48:25;;;;;;;35.78;25.63;;;11.00;99.90;;;;;;5132177;27;20027;-67
2023/10/19 02:50:50;;;;;;;33.53;26.23;;;11.00;99.90;;;;;;5132346;27;20027;-68
2023/10/19 02:53:19;;;;;;;38.55;26.48;;;10.90;99.90;;;;;;5132049;27;20019;-67
2023/10/19 02:55:45;;;;;;;40.13;28.30;;;10.90;99.90;;;;;;5130417;27;20087;-68
2023/10/19 02:58:11;;;;;;;35.60;26.90;;;10.90;99.90;;;;;;5131684;27;20464;-67
2023/10/19 03:00:39;;;;;;;38.45;27.70;;;10.80;99.90;;;;;;5131844;27;20015;-68
2023/10/19 03:03:06;;;;;;;38.60;27.10;;;10.80;99.90;;;;;;5131573;27;20045;-68
2023/10/19 03:05:34;;;;;;;34.75;25.05;;;10.70;99.90;;;;;;5132079;27;20106;-68
2023/10/19 03:08:05;;;;;;;39.15;28.80;;;10.60;99.90;;;;;;5131440;27;20329;-67
2023/10/19 03:10:41;;;;;;;38.55;26.55;;;10.60;99.90;;;;;;5132251;27;20103;-67
2023/10/19 03:13:09;;;;;;;42.40;29.33;;;10.50;99.90;;;;;;5131296;27;20045;-68
2023/10/19 03:15:35;;;;;;;40.38;28.30;;;10.50;99.90;;;;;;5120983;27;20039;-69
2023/10/19 03:18:04;;;;;;;39.45;29.13;;;10.40;99.90;;;;;;5131645;27;20023;-68
2023/10/19 03:20:33;;;;;;;40.22;28.25;;;10.40;99.90;;;;;;5132247;27;20023;-67
2023/10/19 03:23:01;;;;;;;39.58;26.95;;;10.40;99.90;;;;;;5131048;27;20425;-67
2023/10/19 03:28:12;;;;;;;47.22;31.42;;;10.20;99.90;;;;;;5131498;27;20076;-67
2023/10/19 03:30:40;;;;;;;35.95;27.00;;;10.20;99.90;;;;;;5131632;28;20023;-68
2023/10/19 03:33:12;;;;;;;41.83;29.65;;;10.20;99.90;;;;;;5131947;28;20069;-67
2023/10/19 03:35:41;;;;;;;38.95;28.50;;;10.20;99.90;;;;;;5131977;28;20536;-67
2023/10/19 03:38:18;;;;;;;42.10;27.30;;;10.10;99.90;;;;;;5127890;28;20102;-67
2023/10/19 03:40:51;;;;;;;41.58;30.33;;;10.10;99.90;;;;;;5112554;28;20015;-67
2023/10/19 03:43:17;;;;;;;42.47;29.33;;;10.10;99.90;;;;;;5131593;28;20029;-67
2023/10/19 03:45:54;;;;;;;42.35;30.10;;;10.20;99.90;;;;;;5131115;28;20027;-68
2023/10/19 03:48:38;;;;;;;48.38;32.78;;;10.20;99.90;;;;;;5123838;28;20024;-67
2023/10/19 03:51:04;;;;;;;47.95;31.83;;;10.20;99.90;;;;;;5131896;28;20050;-67
2023/10/19 03:53:32;;;;;;;42.72;29.63;;;10.20;99.90;;;;;;5131281;28;20031;-67
2023/10/19 03:55:58;;;;;;;41.35;28.30;;;10.20;99.90;;;;;;5126550;27;20069;-67
2023/10/19 03:58:24;;;;;;;37.17;25.33;;;10.20;99.90;;;;;;5124692;28;20102;-68
2023/10/19 04:00:49;;;;;;;37.45;23.20;;;10.30;99.90;;;;;;5131245;28;20106;-68
2023/10/19 04:03:17;;;;;;;40.08;24.27;;;10.30;99.90;;;;;;5112839;28;20042;-69
2023/10/19 04:05:46;;;;;;;41.85;29.08;;;10.30;99.90;;;;;;5129616;28;20434;-69
2023/10/19 04:08:14;;;;;;;38.23;27.20;;;10.30;99.90;;;;;;5131133;28;20019;-69
2023/10/19 04:10:44;;;;;;;37.63;24.20;;;10.30;99.90;;;;;;5130902;28;20023;-69
2023/10/19 04:13:10;;;;;;;37.00;24.85;;;10.30;99.90;;;;;;5131028;28;20023;-69
2023/10/19 04:15:37;;;;;;;40.95;26.77;;;10.50;99.90;;;;;;5130373;28;20047;-70
2023/10/19 04:18:08;;;;;;;41.65;27.90;;;10.50;99.90;;;;;;5122003;28;20092;-69
2023/10/19 04:23:20;;;;;;;43.13;27.30;;;10.60;99.90;;;;;;5120122;28;20019;-69
2023/10/19 04:25:47;;;;;;;42.08;26.90;;;10.70;99.90;;;;;;5130745;28;20030;-69
2023/10/19 04:28:17;;;;;;;43.20;27.50;;;10.70;99.90;;;;;;5130998;28;20038;-69
2023/10/19 04:30:43;;;;;;;38.97;25.08;;;10.70;99.90;;;;;;5130523;28;20015;-70
2023/10/19 04:33:09;;;;;;;43.65;28.48;;;10.60;99.90;;;;;;5130545;28;20018;-69
2023/10/19 04:35:41;;;;;;;45.63;28.15;;;10.60;99.90;;;;;;5130697;28;20019;-71
2023/10/19 04:38:06;;;;;;;42.72;26.80;;;10.60;99.90;;;;;;5127840;28;20024;-69
2023/10/19 04:40:32;;;;;;;45.75;27.58;;;10.60;99.90;;;;;;5134366;27;20034;-70
2023/10/19 04:42:58;;;;;;;42.90;27.38;;;10.50;99.90;;;;;;5115605;27;20023;-69
2023/10/19 04:45:23;;;;;;;39.42;26.10;;;10.50;99.90;;;;;;5123185;27;20027;-69
2023/10/19 04:47:54;;;;;;;47.30;28.73;;;10.50;99.90;;;;;;5132680;27;20054;-69
2023/10/19 04:50:20;;;;;;;43.50;25.50;;;10.50;99.90;;;;;;5134635;27;20710;-68
2023/10/19 04:52:47;;;;;;;42.42;26.98;;;10.40;99.90;;;;;;5133085;27;20027;-69
2023/10/19 04:55:13;;;;;;;38.38;24.42;;;10.40;99.90;;;;;;5133947;27;20439;-68
2023/10/19 04:57:39;;;;;;;38.67;24.33;;;10.40;99.90;;;;;;5114851;27;20055;-69
2023/10/19 05:00:05;;;;;;;43.45;28.00;;;10.30;99.90;;;;;;5134692;27;20054;-68
2023/10/19 05:02:30;;;;;;;41.47;27.02;;;10.40;99.90;;;;;;5133433;27;20455;-68
2023/10/19 05:04:56;;;;;;;44.72;27.45;;;10.30;99.90;;;;;;5133683;27;20020;-69
2023/10/19 05:07:21;;;;;;;40.15;26.85;;;10.30;99.90;;;;;;5134062;27;20031;-68
2023/10/19 05:09:47;;;;;;;47.00;29.15;;;10.30;99.90;;;;;;5133508;27;20042;-68
2023/10/19 05:12:16;;;;;;;41.30;26.95;;;10.20;99.90;;;;;;5133438;27;20035;-68
2023/10/19 05:14:42;;;;;;;43.42;27.75;;;10.20;99.90;;;;;;5132878;27;20043;-68
2023/10/19 05:17:09;;;;;;;43.83;27.50;;;10.20;99.90;;;;;;5130294;27;20031;-68
2023/10/19 05:19:36;;;;;;;48.22;29.52;;;10.20;99.90;;;;;;5126327;27;20031;-69
2023/10/19 05:22:04;;;;;;;41.42;27.23;;;10.30;99.90;;;;;;5132474;27;20340;-68
2023/10/19 05:24:29;;;;;;;39.53;26.48;;;10.30;99.90;;;;;;5134052;27;20097;-68
2023/10/19 05:26:56;;;;;;;46.70;29.33;;;10.30;99.90;;;;;;5133011;27;20135;-68
2023/10/19 05:29:23;;;;;;;44.95;27.15;;;10.20;99.90;;;;;;5133798;27;20019;-68
2023/10/19 05:31:53;;;;;;;46.53;27.83;;;10.20;99.90;;;;;;5132735;27;20079;-68
2023/10/19 05:34:20;;;;;;;48.20;27.23;;;10.20;99.90;;;;;;5133179;27;20063;-68
2023/10/19 05:36:48;;;;;;;48.72;29.17;;;10.20;99.90;;;;;;5132625;27;20277;-68
2023/10/19 05:39:14;;;;;;;44.33;27.65;;;10.10;99.90;;;;;;5121142;27;20027;-68
2023/10/19 05:41:40;;;;;;;45.30;28.42;;;10.10;99.90;;;;;;5132752;27;20023;-67
2023/10/19 05:44:06;;;;;;;43.15;27.80;;;10.10;99.90;;;;;;5133114;27;20046;-67
2023/10/19 05:46:31;;;;;;;56.42;31.58;;;10.10;99.90;;;;;;5133514;27;20026;-67
2023/10/19 05:48:57;;;;;;;54.17;31.48;;;10.10;99.90;;;;;;5130822;27;20146;-81
2023/10/19 05:51:24;;;;;;;54.65;31.33;;;10.20;99.90;;;;;;5123022;27;20019;-80
2023/10/19 05:53:50;;;;;;;47.95;29.52;;;10.20;99.90;;;;;;5132014;27;20114;-77
2023/10/19 05:56:17;;;;;;;47.50;30.25;;;10.20;99.90;;;;;;5133360;27;20027;-69
2023/10/19 05:58:43;;;;;;;50.63;29.35;;;10.20;99.90;;;;;;5113673;27;20038;-69
2023/10/19 06:01:08;;;;;;;46.53;29.40;;;10.20;99.90;;;;;;5133398;27;20039;-70
2023/10/19 06:03:34;;;;;;;55.33;30.15;;;10.20;99.90;;;;;;5131682;27;20111;-72
2023/10/19 06:06:00;;;;;;;47.08;29.63;;;10.20;99.90;;;;;;5132803;27;20090;-70
2023/10/19 06:08:27;;;;;;;54.60;31.55;;;10.20;99.90;;;;;;5131378;27;20031;-70
2023/10/19 06:10:53;;;;;;;44.28;29.80;;;10.30;99.90;;;;;;5132521;27;20627;-70
2023/10/19 06:13:19;;;;;;;45.10;28.38;;;10.30;99.90;;;;;;5127376;27;20015;-69
2023/10/19 06:15:44;;;;;;;48.70;29.27;;;10.40;99.90;;;;;;5131114;27;20118;-71
2023/10/19 06:18:10;;;;;;;49.92;28.63;;;10.30;99.90;;;;;;5131466;27;20483;-68
2023/10/19 06:20:36;;;;;;;42.90;26.30;;;10.40;99.90;;;;;;5129894;27;20019;-72
2023/10/19 06:23:05;;;;;;;45.40;27.35;;;10.40;99.90;;;;;;5132011;27;20015;-68
2023/10/19 06:25:32;;;;;;;41.15;26.23;;;10.40;99.90;;;;;;5129801;27;20023;-69
2023/10/19 06:27:59;;;;;;;45.38;27.30;;;10.50;99.90;;;;;;5131402;27;20062;-69
2023/10/19 06:30:25;;;;;;;54.38;30.85;;;10.50;99.90;;;;;;5116066;27;20030;-68
2023/10/19 06:32:55;;;;;;;44.90;27.63;;;10.50;99.90;;;;;;5129040;27;20023;-68
2023/10/19 06:35:22;;;;;;;45.88;28.75;;;10.60;99.90;;;;;;5130467;27;20640;-69
2023/10/19 06:37:48;;;;;;;45.40;28.50;;;10.60;99.90;;;;;;5127736;27;20092;-69
2023/10/19 06:40:16;;;;;;;48.10;30.85;;;10.70;99.90;;;;;;5128635;27;20103;-68
2023/10/19 06:42:46;;;;;;;44.45;28.30;;;10.70;99.90;;;;;;5132520;27;20537;-69
2023/10/19 06:45:13;;;;;;;47.30;28.88;;;10.70;99.90;;;;;;5130641;27;20038;-69
2023/10/19 06:47:44;;;;;;;45.78;27.75;;;10.80;99.90;;;;;;5130723;27;20431;-69
2023/10/19 06:50:11;;;;;;;39.60;25.30;;;10.80;99.90;;;;;;5125108;27;20061;-69
2023/10/19 06:52:39;;;;;;;40.10;25.42;;;10.80;99.90;;;;;;5130780;27;20025;-69
2023/10/19 06:55:13;;;;;;;39.95;25.52;;;10.90;99.90;;;;;;5131301;27;20092;-69
2023/10/19 06:57:43;;;;;;;45.38;27.58;;;10.90;99.90;;;;;;5112122;27;20042;-69
2023/10/19 07:00:14;;;;;;;50.13;31.63;;;11.00;99.90;;;;;;5107739;27;20359;-70
2023/10/19 07:02:41;;;;;;;49.72;29.40;;;11.10;99.90;;;;;;5118437;27;20015;-69
2023/10/19 07:05:10;;;;;;;37.60;26.23;;;11.20;99.90;;;;;;5131691;27;20038;-69
2023/10/19 07:07:37;;;;;;;47.80;26.17;;;11.20;99.90;;;;;;5130634;27;20054;-72
2023/10/19 07:10:03;;;;;;;46.65;27.98;;;11.30;99.90;;;;;;5123280;27;20027;-69
2023/10/19 07:12:29;;;;;;;47.03;28.15;;;11.40;99.90;;;;;;5122745;27;20022;-69
2023/10/19 07:14:54;;;;;;;36.92;26.35;;;11.50;99.90;;;;;;5115582;27;20126;-70
2023/10/19 07:17:20;;;;;;;36.45;24.95;;;11.50;99.90;;;;;;5123893;27;20464;-69
2023/10/19 07:19:48;;;;;;;33.53;23.27;;;11.60;99.90;;;;;;5130460;27;20027;-68
2023/10/19 07:22:15;;;;;;;32.28;23.42;;;11.50;99.90;;;;;;5131051;27;20022;-69
2023/10/19 07:24:41;;;;;;;35.08;22.92;;;11.60;99.90;;;;;;5123928;27;20524;-70
2023/10/19 07:27:07;;;;;;;36.05;25.08;;;11.60;99.90;;;;;;5126044;28;20579;-69
2023/10/19 07:29:35;;;;;;;30.38;22.55;;;11.70;99.90;;;;;;5124245;28;20100;-69
2023/10/19 07:32:04;;;;;;;32.42;22.05;;;11.80;99.90;;;;;;5121132;28;20020;-69
2023/10/19 07:34:34;;;;;;;30.17;21.08;;;11.80;99.90;;;;;;5127853;28;20023;-68
2023/10/19 07:37:00;;;;;;;26.42;20.88;;;11.80;99.90;;;;;;5123713;28;20027;-69
2023/10/19 07:39:29;;;;;;;30.98;22.13;;;11.90;99.90;;;;;;5121386;28;20461;-69
2023/10/19 07:41:56;;;;;;;28.88;22.00;;;12.00;99.90;;;;;;5124611;28;20023;-69
2023/10/19 07:44:22;;;;;;;28.60;21.55;;;12.10;99.90;;;;;;5129669;28;20110;-69
2023/10/19 07:46:49;;;;;;;27.77;21.27;;;12.20;99.90;;;;;;5129881;28;20061;-70
2023/10/19 07:49:14;;;;;;;30.73;20.15;;;12.30;99.90;;;;;;5123517;28;20478;-70
2023/10/19 07:51:49;;;;;;;30.52;20.52;;;12.40;99.90;;;;;;5122682;28;20090;-70
2023/10/19 07:54:15;;;;;;;25.55;18.80;;;12.50;99.90;;;;;;5126911;28;20107;-69
2023/10/19 07:56:41;;;;;;;28.05;19.67;;;12.60;99.90;;;;;;5111476;28;20128;-67
2023/10/19 07:59:07;;;;;;;22.77;18.25;;;12.60;99.90;;;;;;5128924;28;20045;-68
2023/10/19 08:01:33;;;;;;;27.20;19.10;;;12.70;99.90;;;;;;5131194;27;20405;-71
2023/10/19 08:03:59;;;;;;;25.20;18.00;;;12.80;99.90;;;;;;5128648;28;20367;-69
2023/10/19 08:06:25;;;;;;;21.65;15.90;;;12.80;99.90;;;;;;5114398;28;20023;-68
2023/10/19 08:08:52;;;;;;;19.73;15.52;;;12.90;99.90;;;;;;5127546;28;20123;-70
2023/10/19 08:11:18;;;;;;;25.15;17.48;;;13.00;99.90;;;;;;5126838;28;20019;-71
2023/10/19 08:13:44;;;;;;;23.42;17.95;;;13.00;99.90;;;;;;5130368;27;20076;-68
2023/10/19 08:16:12;;;;;;;26.88;16.90;;;13.00;99.90;;;;;;5127739;27;20080;-69
2023/10/19 08:18:37;;;;;;;25.48;18.63;;;13.10;99.90;;;;;;5133636;27;20050;-70
2023/10/19 08:21:03;;;;;;;22.95;17.55;;;13.10;99.90;;;;;;5130260;27;20058;-70
2023/10/19 08:23:31;;;;;;;23.15;16.80;;;13.20;99.90;;;;;;5127210;27;20029;-69
2023/10/19 08:25:57;;;;;;;25.20;18.75;;;13.20;99.90;;;;;;5133570;27;20057;-71
2023/10/19 08:28:22;;;;;;;35.03;20.73;;;13.20;99.90;;;;;;5132071;27;20015;-69
2023/10/19 08:30:57;;;;;;;24.90;18.92;;;13.30;99.90;;;;;;5118186;27;20035;-70
2023/10/19 08:33:27;;;;;;;27.30;19.25;;;13.40;99.90;;;;;;5134485;27;20019;-70
2023/10/19 08:35:56;;;;;;;28.63;20.15;;;;;;;;;;5131388;27;20142;-70
2023/10/19 08:38:23;;;;;;;24.77;18.25;;;13.80;99.90;;;;;;5126590;27;20490;-69
2023/10/19 08:40:50;;;;;;;26.73;18.48;;;13.80;99.90;;;;;;5125753;27;20031;-69
2023/10/19 08:43:18;;;;;;;24.52;17.35;;;13.80;99.90;;;;;;5133475;27;20062;-70
2023/10/19 08:45:44;;;;;;;23.67;17.40;;;;;;;;;;5127939;27;20018;-68
2023/10/19 08:48:11;;;;;;;23.88;16.88;;;14.30;99.90;;;;;;5134182;27;20015;-70
2023/10/19 08:50:37;;;;;;;22.58;16.10;;;14.30;99.90;;;;;;5130618;27;20035;-72
2023/10/19 08:53:08;;;;;;;21.05;15.02;;;14.40;99.90;;;;;;5133731;27;20496;-69
2023/10/19 08:55:37;;;;;;;20.30;14.60;;;14.50;99.90;;;;;;5133980;27;20047;-71
2023/10/19 08:58:06;;;;;;;20.45;15.48;;;14.40;99.90;;;;;;5133986;27;20355;-69
2023/10/19 09:00:54;;;;;;;19.27;14.15;;;14.50;99.90;;;;;;5133937;27;20110;-70
2023/10/19 09:03:21;;;;;;;21.80;14.75;;;14.50;99.90;;;;;;5133867;27;20075;-70
2023/10/19 09:05:47;;;;;;;21.33;15.20;;;14.50;99.90;;;;;;5125215;27;20524;-70
2023/10/19 09:08:17;;;;;;;19.85;13.98;;;14.60;99.90;;;;;;5127829;27;20027;-70
2023/10/19 09:10:45;;;;;;;18.33;12.40;;;14.70;99.90;;;;;;5131663;27;20027;-69
2023/10/19 09:13:12;;;;;;;21.85;13.63;;;14.80;99.90;;;;;;5133463;27;20456;-69
2023/10/19 09:15:41;;;;;;;19.23;13.20;;;;;;;;;;5108233;28;20048;-70
2023/10/19 09:18:16;;;;;;;20.38;12.77;;;15.50;99.90;;;;;;5128250;27;20042;-69
2023/10/19 09:20:53;;;;;;;17.75;11.88;;;15.50;99.90;;;;;;5133351;27;20035;-69
2023/10/19 09:23:23;;;;;;;16.55;11.15;;;15.70;99.90;;;;;;5133499;27;20098;-70
2023/10/19 09:25:49;;;;;;;18.83;12.13;;;;;;;;;;5128992;27;20046;-70
2023/10/19 09:28:15;;;;;;;13.63;11.07;;;16.10;99.90;;;;;;5131395;27;20026;-71
2023/10/19 09:30:43;;;;;;;12.82;9.68;;;16.10;99.90;;;;;;5132049;27;20027;-69
2023/10/19 09:33:09;;;;;;;17.08;11.55;;;16.30;99.90;;;;;;5132866;27;20473;-69
2023/10/19 09:35:37;;;;;;;13.40;9.40;;;16.40;99.90;;;;;;5124149;27;20119;-71
2023/10/19 09:38:06;;;;;;;14.80;9.57;;;16.50;99.90;;;;;;5132972;27;20256;-69
2023/10/19 09:40:33;;;;;;;13.60;9.82;;;16.60;99.90;;;;;;5130897;27;20019;-69
2023/10/19 09:43:03;;;;;;;15.20;9.05;;;16.70;99.90;;;;;;5131812;27;20110;-69
2023/10/19 09:45:32;;;;;;;18.45;10.45;;;16.70;99.90;;;;;;5125064;27;20027;-70
2023/10/19 09:48:01;;;;;;;14.20;9.52;;;;;;;;;;5132076;27;20094;-69
2023/10/19 09:50:27;;;;;;;13.43;9.00;;;16.90;99.90;;;;;;5120674;27;20023;-69
2023/10/19 09:52:54;;;;;;;14.00;10.13;;;16.90;99.90;;;;;;5127464;27;20467;-69
2023/10/19 09:55:28;;;;;;;13.95;8.93;;;16.90;99.90;;;;;;5127876;27;20030;-70
2023/10/19 09:58:06;;;;;;;9.13;7.15;;;17.00;99.90;;;;;;5120502;27;20023;-70
2023/10/19 10:00:31;;;;;;;10.15;7.80;;;17.10;99.90;;;;;;5129151;27;20016;-69
2023/10/19 10:02:57;;;;;;;9.63;6.72;;;17.10;99.90;;;;;;5115918;27;20023;-69
2023/10/19 10:05:36;;;;;;;6.25;5.07;;;;;;;;;;5130527;27;20047;-69
2023/10/19 10:08:17;;;;;;;6.68;4.85;;;;;;;;;;5110762;27;20023;-69
2023/10/19 10:10:43;;;;;;;7.85;4.70;;;;;;;;;;5120699;27;20037;-69
2023/10/19 10:13:36;;;;;;;8.65;5.07;;;;;;;;;;5132536;27;20023;-70
2023/10/19 10:16:03;;;;;;;4.68;3.97;;;;;;;;;;5113027;27;20134;-70
2023/10/19 10:18:32;;;;;;;7.70;4.30;;;;;;;;;;5131808;27;20018;-70
2023/10/19 10:21:10;;;;;;;5.03;3.30;;;;;;;;;;5121723;27;20057;-69
2023/10/19 10:23:47;;;;;;;4.13;3.47;;;;;;;;;;5129351;27;20023;-72
2023/10/19 10:26:13;;;;;;;5.78;3.47;;;;;;;;;;5127123;27;20026;-69
2023/10/19 10:28:40;;;;;;;5.75;3.25;;;;;;;;;;5131293;27;20029;-70
2023/10/19 10:31:20;;;;;;;4.85;3.50;;;;;;;;;;5129230;27;20102;-69
2023/10/19 10:33:51;;;;;;;5.78;3.03;;;;;;;;;;5131053;27;20019;-70
2023/10/19 10:36:18;;;;;;;2.90;2.40;;;;;;;;;;5131581;27;20474;-69
2023/10/19 10:38:45;;;;;;;2.28;2.05;;;;;;;;;;5120483;27;20020;-69
2023/10/19 10:41:11;;;;;;;2.47;2.28;;;;;;;;;;5127983;27;20435;-69
2023/10/19 10:43:53;;;;;;;4.93;2.63;;;;;;;;;;5130945;27;20027;-71
2023/10/19 10:46:21;;;;;;;3.95;2.60;;;;;;;;;;5123396;27;20023;-70
2023/10/19 10:48:48;;;;;;;3.78;2.67;;;;;;;;;;5124726;27;20011;-69
2023/10/19 10:51:24;;;;;;;5.18;3.42;;;;;;;;;;5129129;27;20015;-69
2023/10/19 10:53:51;;;;;;;6.13;4.43;;;;;;;;;;5130566;27;20015;-69
2023/10/19 10:56:17;;;;;;;6.20;4.35;;;;;;;;;;5123184;27;20529;-69
2023/10/19 10:58:44;;;;;;;7.38;4.30;;;;;;;;;;5126779;27;20067;-69
2023/10/19 11:01:10;;;;;;;9.43;4.78;;;;;;;;;;5131986;27;20023;-69
2023/10/19 11:03:37;;;;;;;5.30;4.35;;;;;;;;;;5122241;27;20018;-71
2023/10/19 11:06:03;;;;;;;8.43;4.53;;;;;;;;;;5128312;27;20033;-69
2023/10/19 11:08:32;;;;;;;5.68;3.60;;;;;;;;;;5126045;27;20012;-69
2023/10/19 11:11:02;;;;;;;5.38;3.05;;;;;;;;;;5123734;27;20020;-69
2023/10/19 11:13:33;;;;;;;4.10;2.80;;;;;;;;;;5114874;27;20019;-70
2023/10/19 11:16:01;;;;;;;5.32;2.75;;;;;;;;;;5127830;27;20297;-69
2023/10/19 11:18:37;;;;;;;8.18;2.90;;;;;;;;;;5116056;27;20505;-69
2023/10/19 11:21:07;;;;;;;3.88;2.83;;;;;;;;;;5123986;27;20038;-69
2023/10/19 11:23:36;;;;;;;4.47;3.20;;;;;;;;;;5119840;27;20030;-71
2023/10/19 11:26:04;;;;;;;5.15;3.05;;;;;;;;;;5122967;27;20016;-69
2023/10/19 11:28:31;;;;;;;4.88;2.90;;;;;;;;;;5131478;27;20340;-69
2023/10/19 11:31:10;;;;;;;3.70;2.80;;;;;;;;;;5118869;28;20031;-69
2023/10/19 11:33:36;;;;;;;3.92;2.60;;;;;;;;;;5130333;28;20030;-71
2023/10/19 11:36:02;;;;;;;9.07;3.20;;;;;;;;;;5127506;28;20312;-69
2023/10/19 11:38:28;;;;;;;5.20;3.03;;;;;;;;;;5131489;28;20019;-69
2023/10/19 11:41:00;;;;;;;3.55;3.15;;;;;;;;;;5122074;28;20017;-69
2023/10/19 11:43:29;;;;;;;4.75;3.00;;;;;;;;;;5131027;28;20031;-69
2023/10/19 11:45:59;;;;;;;4.38;2.95;;;;;;;;;;5128008;28;20022;-69
2023/10/19 11:48:28;;;;;;;9.45;3.55;;;;;;;;;;5132624;27;20020;-69
2023/10/19 11:50:57;;;;;;;4.75;3.13;;;;;;;;;;5128455;27;20019;-69
2023/10/19 11:53:26;;;;;;;4.18;3.28;;;;;;;;;;5130106;27;20029;-69
2023/10/19 11:55:55;;;;;;;3.63;2.92;;;;;;;;;;5110034;27;20015;-69
2023/10/19 11:58:24;;;;;;;7.25;3.50;;;;;;;;;;5134975;27;20023;-70
2023/10/19 12:00:54;;;;;;;9.15;5.22;;;;;;;;;;5119296;27;20394;-68
2023/10/19 12:03:22;;;;;;;11.95;7.53;;;;;;;;;;5118466;27;20102;-69
2023/10/19 12:05:52;;;;;;;9.10;7.63;;;;;;;;;;5130806;27;20114;-69
2023/10/19 12:08:22;;;;;;;13.35;8.65;;;;;;;;;;5130295;27;20027;-69
2023/10/19 12:10:49;;;;;;;11.50;8.57;;;;;;;;;;5129437;27;20072;-69
2023/10/19 12:13:16;;;;;;;11.27;8.23;;;;;;;;;;5134881;27;20302;-69
2023/10/19 12:15:51;;;;;;;12.55;7.55;;;;;;;;;;5127795;27;20088;-69
2023/10/19 12:18:19;;;;;;;13.63;8.68;;;;;;;;;;5132219;27;20050;-69
2023/10/19 12:20:47;;;;;;;9.98;6.70;;;;;;;;;;5118562;27;20073;-77
2023/10/19 12:23:14;;;;;;;9.70;4.68;;;;;;;;;;5132755;27;20022;-68
2023/10/19 12:25:42;;;;;;;9.40;5.30;;;;;;;;;;5129782;27;20464;-68
2023/10/19 12:28:13;;;;;;;7.95;5.20;;;;;;;;;;5132930;27;20026;-68
2023/10/19 12:30:41;;;;;;;10.90;5.28;;;;;;;;;;5122724;27;20030;-68
2023/10/19 12:33:11;;;;;;;7.03;5.25;;;;;;;;;;5127795;27;20029;-66
2023/10/19 12:35:45;;;;;;;10.43;7.68;;;;;;;;;;5132252;27;20087;-67
2023/10/19 12:38:17;;;;;;;11.38;7.97;;;;;;;;;;5120605;27;20035;-65
2023/10/19 12:40:48;;;;;;;7.75;7.03;;;;;;;;;;5130450;27;20011;-65
2023/10/19 12:43:18;;;;;;;11.32;7.70;;;;;;;;;;5134319;27;20479;-66
2023/10/19 12:45:50;;;;;;;7.72;6.88;;;;;;;;;;5120071;27;20055;-65
2023/10/19 12:48:18;;;;;;;11.20;7.70;;;;;;;;;;5121393;27;20068;-69
2023/10/19 12:50:45;;;;;;;11.23;7.57;;;;;;;;;;5127820;27;20520;-68
2023/10/19 12:53:12;;;;;;;11.55;9.13;;;;;;;;;;5133915;27;20060;-68
2023/10/19 12:55:39;;;;;;;12.65;9.35;;;;;;;;;;5123326;27;20050;-68
2023/10/19 12:58:09;;;;;;;12.25;9.23;;;;;;;;;;5122814;27;20023;-68
2023/10/19 13:00:44;;;;;;;12.27;9.68;;;;;;;;;;5127104;27;20023;-70
2023/10/19 13:03:16;;;;;;;10.88;8.45;;;;;;;;;;5114310;27;20011;-70
2023/10/19 13:05:44;;;;;;;11.85;8.80;;;;;;;;;;5125552;27;20026;-69
2023/10/19 13:08:14;;;;;;;12.15;8.10;;;14.80;99.90;;;;;;5126801;27;20034;-68
2023/10/19 13:10:42;;;;;;;9.23;8.02;;;14.80;99.90;;;;;;5131496;27;20019;-68
2023/10/19 13:13:12;;;;;;;16.30;9.02;;;14.80;99.90;;;;;;5133702;27;20066;-68
2023/10/19 13:15:41;;;;;;;10.43;8.52;;;14.90;99.90;;;;;;5130091;27;20046;-69
2023/10/19 13:18:09;;;;;;;13.10;8.73;;;14.90;99.90;;;;;;5131545;27;20027;-68
2023/10/19 13:20:36;;;;;;;11.90;9.82;;;14.90;99.90;;;;;;5104380;28;20031;-69
2023/10/19 13:23:03;;;;;;;14.60;9.77;;;15.00;99.90;;;;;;5129403;27;20019;-67
2023/10/19 13:25:41;;;;;;;13.57;9.32;;;15.00;99.90;;;;;;5124633;27;20027;-66
2023/10/19 13:28:09;;;;;;;10.90;9.57;;;15.00;99.90;;;;;;5133234;27;20035;-67